CheckWX is a tool to help pilots better visualize weather data.  It is not intended as a substitute for an official pre-flight weather briefing.

01:51:25 UTC

SBKG TAF
Presidente João Suassuna Airport
Campina Grande, Brazil
TAF SBKG 182200Z 1900/1912 10008KT 9999 SCT013 TN21/1908Z TX25/1911Z RMK PEQ

Mar-19@
00:00 UTC

Mar-19 @ 00:00 UTC

Mar-19@
12:00 UTC

Mar-19 @ 12:00 UTC

TAF SBKG 182200Z 1900/1912 10008KT 9999 SCT013 TN21/1908Z TX25/1911Z RMK PEQ
Wind
  • 100° at 8 KTS
Cloud Levels
  • Scattered at 1,300' AGL